sensor_id;sensor_type;location;lat;lon;timestamp;pressure;altitude;pressure_sealevel;temperature;humidity
35224;BME280;21367;51.930;8.112;2023-08-08T00:04:36;100746.25;;;13.34;100.00
35224;BME280;21367;51.930;8.112;2023-08-08T00:09:40;100755.84;;;13.38;100.00
35224;BME280;21367;51.930;8.112;2023-08-08T00:14:44;100754.63;;;13.27;100.00
35224;BME280;21367;51.930;8.112;2023-08-08T00:19:50;100747.41;;;13.44;100.00
35224;BME280;21367;51.930;8.112;2023-08-08T00:24:53;100737.03;;;13.42;100.00
35224;BME280;21367;51.930;8.112;2023-08-08T00:29:57;100732.09;;;13.50;100.00
35224;BME280;21367;51.930;8.112;2023-08-08T00:35:04;100715.97;;;13.57;100.00
35224;BME280;21367;51.930;8.112;2023-08-08T00:40:09;100722.50;;;13.46;100.00
35224;BME280;21367;51.930;8.112;2023-08-08T00:45:12;100717.72;;;13.30;100.00
35224;BME280;21367;51.930;8.112;2023-08-08T00:50:20;100704.94;;;13.63;100.00
35224;BME280;21367;51.930;8.112;2023-08-08T00:55:24;100701.38;;;13.59;100.00
35224;BME280;21367;51.930;8.112;2023-08-08T01:00:28;100702.97;;;13.54;100.00
35224;BME280;21367;51.930;8.112;2023-08-08T01:05:37;100699.81;;;13.64;100.00
35224;BME280;21367;51.930;8.112;2023-08-08T01:10:42;100709.69;;;13.49;100.00
35224;BME280;21367;51.930;8.112;2023-08-08T01:15:48;100699.59;;;13.57;100.00
35224;BME280;21367;51.930;8.112;2023-08-08T01:20:55;100694.94;;;13.74;100.00
35224;BME280;21367;51.930;8.112;2023-08-08T01:26:03;100698.28;;;13.71;100.00
35224;BME280;21367;51.930;8.112;2023-08-08T01:31:07;100697.09;;;13.60;100.00
35224;BME280;21367;51.930;8.112;2023-08-08T01:36:15;100704.72;;;13.55;100.00
35224;BME280;21367;51.930;8.112;2023-08-08T01:41:25;100696.97;;;13.27;100.00
35224;BME280;21367;51.930;8.112;2023-08-08T01:46:30;100695.31;;;13.03;100.00
35224;BME280;21367;51.930;8.112;2023-08-08T01:51:34;100700.75;;;13.11;100.00
35224;BME280;21367;51.930;8.112;2023-08-08T01:56:40;100693.38;;;12.96;100.00
35224;BME280;21367;51.930;8.112;2023-08-08T02:01:44;100691.84;;;13.01;100.00
35224;BME280;21367;51.930;8.112;2023-08-08T02:06:47;100680.16;;;12.85;100.00
35224;BME280;21367;51.930;8.112;2023-08-08T02:11:54;100669.09;;;12.89;100.00
35224;BME280;21367;51.930;8.112;2023-08-08T02:16:57;100663.06;;;12.89;100.00
35224;BME280;21367;51.930;8.112;2023-08-08T02:22:01;100657.44;;;13.01;100.00
35224;BME280;21367;51.930;8.112;2023-08-08T02:27:07;100657.72;;;12.83;100.00
35224;BME280;21367;51.930;8.112;2023-08-08T02:32:11;100652.59;;;12.84;100.00
35224;BME280;21367;51.930;8.112;2023-08-08T02:37:15;100654.28;;;12.84;100.00
35224;BME280;21367;51.930;8.112;2023-08-08T02:42:21;100652.59;;;12.84;100.00
35224;BME280;21367;51.930;8.112;2023-08-08T02:47:25;100647.50;;;12.86;100.00
35224;BME280;21367;51.930;8.112;2023-08-08T02:52:29;100646.38;;;12.78;100.00
35224;BME280;21367;51.930;8.112;2023-08-08T02:57:36;100651.03;;;12.89;100.00
35224;BME280;21367;51.930;8.112;2023-08-08T03:02:40;100635.00;;;13.00;100.00
35224;BME280;21367;51.930;8.112;2023-08-08T03:07:44;100639.19;;;12.94;100.00
35224;BME280;21367;51.930;8.112;2023-08-08T03:12:51;100628.03;;;12.95;100.00
35224;BME280;21367;51.930;8.112;2023-08-08T03:17:56;100619.91;;;13.12;100.00
35224;BME280;21367;51.930;8.112;2023-08-08T03:23:00;100623.25;;;13.08;100.00
35224;BME280;21367;51.930;8.112;2023-08-08T03:28:07;100613.22;;;13.18;100.00
35224;BME280;21367;51.930;8.112;2023-08-08T03:33:11;100605.84;;;13.29;100.00
35224;BME280;21367;51.930;8.112;2023-08-08T03:38:15;100600.28;;;13.17;100.00
35224;BME280;21367;51.930;8.112;2023-08-08T03:43:22;100606.72;;;13.30;100.00
35224;BME280;21367;51.930;8.112;2023-08-08T03:48:25;100594.75;;;13.32;100.00
35224;BME280;21367;51.930;8.112;2023-08-08T03:53:30;100592.41;;;13.41;100.00
35224;BME280;21367;51.930;8.112;2023-08-08T03:58:37;100595.91;;;13.14;100.00
35224;BME280;21367;51.930;8.112;2023-08-08T04:03:41;100593.34;;;13.14;100.00
35224;BME280;21367;51.930;8.112;2023-08-08T04:08:44;100605.75;;;13.26;100.00
35224;BME280;21367;51.930;8.112;2023-08-08T04:13:51;100594.97;;;13.12;100.00
35224;BME280;21367;51.930;8.112;2023-08-08T04:18:54;100602.50;;;13.05;100.00
35224;BME280;21367;51.930;8.112;2023-08-08T04:24:00;100604.59;;;13.16;100.00
35224;BME280;21367;51.930;8.112;2023-08-08T04:29:07;100611.72;;;13.25;100.00
35224;BME280;21367;51.930;8.112;2023-08-08T04:34:10;100610.81;;;13.23;100.00
35224;BME280;21367;51.930;8.112;2023-08-08T04:39:14;100599.38;;;13.15;100.00
35224;BME280;21367;51.930;8.112;2023-08-08T04:44:20;100602.88;;;13.17;100.00
35224;BME280;21367;51.930;8.112;2023-08-08T04:49:24;100599.97;;;13.35;100.00
35224;BME280;21367;51.930;8.112;2023-08-08T04:54:28;100587.38;;;13.46;100.00
35224;BME280;21367;51.930;8.112;2023-08-08T04:59:34;100588.59;;;13.58;100.00
35224;BME280;21367;51.930;8.112;2023-08-08T05:04:38;100588.44;;;13.24;100.00
35224;BME280;21367;51.930;8.112;2023-08-08T05:09:41;100588.13;;;13.41;100.00
35224;BME280;21367;51.930;8.112;2023-08-08T05:14:48;100597.09;;;13.54;100.00
35224;BME280;21367;51.930;8.112;2023-08-08T05:19:51;100584.38;;;13.60;100.00
35224;BME280;21367;51.930;8.112;2023-08-08T05:24:55;100590.16;;;13.52;100.00
35224;BME280;21367;51.930;8.112;2023-08-08T05:30:02;100585.75;;;13.49;100.00
35224;BME280;21367;51.930;8.112;2023-08-08T05:35:06;100592.22;;;13.65;100.00
35224;BME280;21367;51.930;8.112;2023-08-08T05:40:11;100589.91;;;13.74;100.00
35224;BME280;21367;51.930;8.112;2023-08-08T05:45:17;100572.84;;;13.81;100.00
35224;BME280;21367;51.930;8.112;2023-08-08T05:50:21;100574.75;;;13.88;100.00
35224;BME280;21367;51.930;8.112;2023-08-08T05:55:24;100595.16;;;13.77;100.00
35224;BME280;21367;51.930;8.112;2023-08-08T06:00:31;100594.63;;;13.89;100.00
35224;BME280;21367;51.930;8.112;2023-08-08T06:05:34;100586.25;;;13.98;100.00
35224;BME280;21367;51.930;8.112;2023-08-08T06:10:39;100579.38;;;14.00;100.00
35224;BME280;21367;51.930;8.112;2023-08-08T06:15:45;100588.94;;;14.02;100.00
35224;BME280;21367;51.930;8.112;2023-08-08T06:20:49;100593.38;;;14.08;100.00
35224;BME280;21367;51.930;8.112;2023-08-08T06:25:52;100594.97;;;14.36;100.00
35224;BME280;21367;51.930;8.112;2023-08-08T06:30:59;100588.41;;;14.50;100.00
35224;BME280;21367;51.930;8.112;2023-08-08T06:36:03;100595.97;;;14.77;100.00
35224;BME280;21367;51.930;8.112;2023-08-08T06:41:07;100589.50;;;14.96;100.00
35224;BME280;21367;51.930;8.112;2023-08-08T06:46:13;100610.69;;;15.18;100.00
35224;BME280;21367;51.930;8.112;2023-08-08T06:51:17;100603.59;;;15.09;100.00
35224;BME280;21367;51.930;8.112;2023-08-08T06:56:21;100610.50;;;15.10;100.00
35224;BME280;21367;51.930;8.112;2023-08-08T07:01:29;100600.44;;;15.65;100.00
35224;BME280;21367;51.930;8.112;2023-08-08T07:06:32;100613.75;;;15.41;100.00
35224;BME280;21367;51.930;8.112;2023-08-08T07:11:37;100600.78;;;15.39;100.00
35224;BME280;21367;51.930;8.112;2023-08-08T07:16:43;100598.38;;;15.48;100.00
35224;BME280;21367;51.930;8.112;2023-08-08T07:21:47;100596.59;;;15.46;100.00
35224;BME280;21367;51.930;8.112;2023-08-08T07:26:51;100601.47;;;15.31;100.00
35224;BME280;21367;51.930;8.112;2023-08-08T07:31:58;100594.16;;;15.13;100.00
35224;BME280;21367;51.930;8.112;2023-08-08T07:37:02;100593.63;;;14.88;100.00
35224;BME280;21367;51.930;8.112;2023-08-08T07:42:06;100580.03;;;14.97;100.00
35224;BME280;21367;51.930;8.112;2023-08-08T07:47:12;100582.34;;;15.25;100.00
35224;BME280;21367;51.930;8.112;2023-08-08T07:52:16;100583.50;;;15.82;100.00
35224;BME280;21367;51.930;8.112;2023-08-08T07:57:20;100583.56;;;15.84;100.00
35224;BME280;21367;51.930;8.112;2023-08-08T08:02:26;100579.34;;;15.90;100.00
35224;BME280;21367;51.930;8.112;2023-08-08T08:07:31;100577.91;;;16.05;100.00
35224;BME280;21367;51.930;8.112;2023-08-08T08:12:34;100581.13;;;15.93;100.00
35224;BME280;21367;51.930;8.112;2023-08-08T08:17:41;100576.16;;;16.05;100.00
35224;BME280;21367;51.930;8.112;2023-08-08T08:22:45;100589.38;;;15.30;100.00
35224;BME280;21367;51.930;8.112;2023-08-08T08:27:48;100582.75;;;15.03;100.00
35224;BME280;21367;51.930;8.112;2023-08-08T08:32:54;100583.28;;;15.29;100.00
35224;BME280;21367;51.930;8.112;2023-08-08T08:37:58;100573.38;;;15.50;100.00
35224;BME280;21367;51.930;8.112;2023-08-08T08:43:02;100566.38;;;15.46;100.00
35224;BME280;21367;51.930;8.112;2023-08-08T08:48:10;100571.88;;;15.63;100.00
35224;BME280;21367;51.930;8.112;2023-08-08T08:53:14;100572.72;;;16.06;100.00
35224;BME280;21367;51.930;8.112;2023-08-08T08:58:19;100577.84;;;16.02;100.00
35224;BME280;21367;51.930;8.112;2023-08-08T09:03:27;100581.53;;;15.67;100.00
35224;BME280;21367;51.930;8.112;2023-08-08T09:08:30;100576.19;;;15.61;100.00
35224;BME280;21367;51.930;8.112;2023-08-08T09:13:36;100576.03;;;16.51;100.00
35224;BME280;21367;51.930;8.112;2023-08-08T09:18:44;100571.09;;;16.66;100.00
35224;BME280;21367;51.930;8.112;2023-08-08T09:23:47;100572.44;;;16.96;100.00
35224;BME280;21367;51.930;8.112;2023-08-08T09:28:51;100555.34;;;17.11;100.00
35224;BME280;21367;51.930;8.112;2023-08-08T09:33:58;100546.44;;;17.67;91.49
35224;BME280;21367;51.930;8.112;2023-08-08T09:39:02;100554.16;;;18.49;83.72
35224;BME280;21367;51.930;8.112;2023-08-08T09:44:08;100549.81;;;18.50;81.02
35224;BME280;21367;51.930;8.112;2023-08-08T09:49:14;100555.13;;;18.67;82.21
35224;BME280;21367;51.930;8.112;2023-08-08T09:54:18;100540.38;;;18.66;78.15
35224;BME280;21367;51.930;8.112;2023-08-08T09:59:23;100536.75;;;18.48;76.80
35224;BME280;21367;51.930;8.112;2023-08-08T10:04:30;100540.28;;;18.52;79.47
35224;BME280;21367;51.930;8.112;2023-08-08T10:09:34;100542.44;;;19.30;74.87
35224;BME280;21367;51.930;8.112;2023-08-08T10:14:42;100538.09;;;19.26;70.13
35224;BME280;21367;51.930;8.112;2023-08-08T10:19:55;100568.59;;;19.57;67.40
35224;BME280;21367;51.930;8.112;2023-08-08T10:25:04;100554.81;;;20.01;66.55
35224;BME280;21367;51.930;8.112;2023-08-08T10:30:09;100553.09;;;20.26;66.89
35224;BME280;21367;51.930;8.112;2023-08-08T10:35:17;100534.59;;;21.29;64.70
35224;BME280;21367;51.930;8.112;2023-08-08T10:40:20;100528.34;;;21.62;61.63
35224;BME280;21367;51.930;8.112;2023-08-08T10:45:29;100546.78;;;21.30;59.82
35224;BME280;21367;51.930;8.112;2023-08-08T10:50:38;100561.78;;;20.22;64.42
35224;BME280;21367;51.930;8.112;2023-08-08T10:55:43;100541.78;;;20.52;60.39
35224;BME280;21367;51.930;8.112;2023-08-08T11:00:47;100522.53;;;20.87;60.16
35224;BME280;21367;51.930;8.112;2023-08-08T11:05:54;100533.97;;;20.21;60.84
35224;BME280;21367;51.930;8.112;2023-08-08T11:10:58;100533.09;;;20.16;62.74
35224;BME280;21367;51.930;8.112;2023-08-08T11:16:02;100529.59;;;20.40;61.09
35224;BME280;21367;51.930;8.112;2023-08-08T11:21:12;100519.28;;;22.11;56.69
35224;BME280;21367;51.930;8.112;2023-08-08T11:26:17;100529.28;;;22.66;56.62
35224;BME280;21367;51.930;8.112;2023-08-08T11:31:22;100528.31;;;21.65;56.82
35224;BME280;21367;51.930;8.112;2023-08-08T11:36:29;100525.19;;;20.85;57.77
35224;BME280;21367;51.930;8.112;2023-08-08T11:41:34;100513.88;;;20.77;57.89
35224;BME280;21367;51.930;8.112;2023-08-08T11:46:43;100526.94;;;20.74;56.59
35224;BME280;21367;51.930;8.112;2023-08-08T11:51:50;100545.28;;;20.28;57.72
35224;BME280;21367;51.930;8.112;2023-08-08T11:56:57;100520.88;;;20.75;57.92
35224;BME280;21367;51.930;8.112;2023-08-08T12:02:01;100517.53;;;22.10;56.08
35224;BME280;21367;51.930;8.112;2023-08-08T12:07:07;100510.84;;;21.72;52.78
35224;BME280;21367;51.930;8.112;2023-08-08T12:12:13;100498.84;;;22.50;54.43
35224;BME280;21367;51.930;8.112;2023-08-08T12:17:17;100485.72;;;22.54;52.86
35224;BME280;21367;51.930;8.112;2023-08-08T12:22:23;100505.34;;;22.97;52.81
35224;BME280;21367;51.930;8.112;2023-08-08T12:27:27;100495.25;;;22.63;52.31
35224;BME280;21367;51.930;8.112;2023-08-08T12:32:30;100499.72;;;22.53;53.10
35224;BME280;21367;51.930;8.112;2023-08-08T12:37:37;100505.13;;;23.15;52.91
35224;BME280;21367;51.930;8.112;2023-08-08T12:42:40;100499.59;;;22.62;53.03
35224;BME280;21367;51.930;8.112;2023-08-08T12:47:44;100510.53;;;22.12;55.27
35224;BME280;21367;51.930;8.112;2023-08-08T12:52:50;100509.38;;;21.19;56.40
35224;BME280;21367;51.930;8.112;2023-08-08T12:57:54;100490.66;;;22.80;52.84
35224;BME280;21367;51.930;8.112;2023-08-08T13:02:58;100489.91;;;21.75;55.63
35224;BME280;21367;51.930;8.112;2023-08-08T13:08:04;100503.34;;;21.06;57.53
35224;BME280;21367;51.930;8.112;2023-08-08T13:13:08;100504.34;;;19.70;63.37
35224;BME280;21367;51.930;8.112;2023-08-08T13:18:12;100508.50;;;19.10;65.83
35224;BME280;21367;51.930;8.112;2023-08-08T13:23:18;100496.41;;;19.24;64.95
35224;BME280;21367;51.930;8.112;2023-08-08T13:28:22;100488.69;;;20.65;61.72
35224;BME280;21367;51.930;8.112;2023-08-08T13:33:26;100496.53;;;20.28;61.05
35224;BME280;21367;51.930;8.112;2023-08-08T13:38:32;100486.81;;;20.96;60.42
35224;BME280;21367;51.930;8.112;2023-08-08T13:43:36;100493.91;;;20.65;60.46
35224;BME280;21367;51.930;8.112;2023-08-08T13:48:39;100500.00;;;20.40;61.93
35224;BME280;21367;51.930;8.112;2023-08-08T13:53:46;100504.16;;;22.45;59.03
35224;BME280;21367;51.930;8.112;2023-08-08T13:58:49;100500.63;;;22.48;56.36
35224;BME280;21367;51.930;8.112;2023-08-08T14:03:53;100484.63;;;22.75;54.62
35224;BME280;21367;51.930;8.112;2023-08-08T14:08:59;100506.94;;;23.08;54.36
35224;BME280;21367;51.930;8.112;2023-08-08T14:14:04;100490.47;;;24.18;51.39
35224;BME280;21367;51.930;8.112;2023-08-08T14:19:08;100492.81;;;24.81;51.82
35224;BME280;21367;51.930;8.112;2023-08-08T14:24:15;100501.97;;;25.47;49.74
35224;BME280;21367;51.930;8.112;2023-08-08T14:29:19;100509.66;;;23.67;50.83
35224;BME280;21367;51.930;8.112;2023-08-08T14:34:28;100509.66;;;23.67;50.39
35224;BME280;21367;51.930;8.112;2023-08-08T14:39:35;100514.72;;;23.18;52.01
35224;BME280;21367;51.930;8.112;2023-08-08T14:44:39;100510.72;;;23.54;51.97
35224;BME280;21367;51.930;8.112;2023-08-08T14:49:42;100530.97;;;23.43;51.66
35224;BME280;21367;51.930;8.112;2023-08-08T14:54:50;100536.94;;;24.67;51.33
35224;BME280;21367;51.930;8.112;2023-08-08T14:59:54;100533.41;;;23.58;51.61
35224;BME280;21367;51.930;8.112;2023-08-08T15:04:57;100526.28;;;24.23;51.20
35224;BME280;21367;51.930;8.112;2023-08-08T15:10:05;100542.81;;;24.30;51.07
35224;BME280;21367;51.930;8.112;2023-08-08T15:15:10;100534.59;;;23.97;52.02
35224;BME280;21367;51.930;8.112;2023-08-08T15:20:14;100545.41;;;22.20;55.83
35224;BME280;21367;51.930;8.112;2023-08-08T15:25:20;100546.03;;;23.30;54.41
35224;BME280;21367;51.930;8.112;2023-08-08T15:30:24;100534.41;;;24.61;52.49
35224;BME280;21367;51.930;8.112;2023-08-08T15:35:27;100542.19;;;24.67;51.42
35224;BME280;21367;51.930;8.112;2023-08-08T15:40:34;100544.00;;;22.76;56.17
35224;BME280;21367;51.930;8.112;2023-08-08T15:45:38;100541.47;;;21.55;58.51
35224;BME280;21367;51.930;8.112;2023-08-08T15:50:41;100544.22;;;21.22;59.95
35224;BME280;21367;51.930;8.112;2023-08-08T15:55:48;100542.44;;;21.21;60.39
35224;BME280;21367;51.930;8.112;2023-08-08T16:00:51;100538.00;;;21.51;59.50
35224;BME280;21367;51.930;8.112;2023-08-08T16:05:56;100542.31;;;21.63;59.05
35224;BME280;21367;51.930;8.112;2023-08-08T16:11:02;100537.31;;;21.09;60.71
35224;BME280;21367;51.930;8.112;2023-08-08T16:16:06;100549.59;;;20.64;61.24
35224;BME280;21367;51.930;8.112;2023-08-08T16:21:10;100534.78;;;20.68;60.36
35224;BME280;21367;51.930;8.112;2023-08-08T16:26:19;100536.59;;;22.30;56.19
35224;BME280;21367;51.930;8.112;2023-08-08T16:31:23;100546.47;;;21.87;56.22
35224;BME280;21367;51.930;8.112;2023-08-08T16:36:26;100554.59;;;21.42;57.89
35224;BME280;21367;51.930;8.112;2023-08-08T16:41:33;100562.63;;;20.87;57.98
35224;BME280;21367;51.930;8.112;2023-08-08T16:46:36;100554.59;;;22.62;53.98
35224;BME280;21367;51.930;8.112;2023-08-08T16:51:40;100551.22;;;23.31;52.28
35224;BME280;21367;51.930;8.112;2023-08-08T16:56:47;100557.78;;;21.95;55.63
35224;BME280;21367;51.930;8.112;2023-08-08T17:01:51;100551.81;;;21.71;55.82
35224;BME280;21367;51.930;8.112;2023-08-08T17:06:55;100576.59;;;20.66;56.54
35224;BME280;21367;51.930;8.112;2023-08-08T17:12:01;100565.50;;;22.12;55.10
35224;BME280;21367;51.930;8.112;2023-08-08T17:17:05;100560.94;;;22.40;56.11
35224;BME280;21367;51.930;8.112;2023-08-08T17:22:08;100567.91;;;23.92;52.97
35224;BME280;21367;51.930;8.112;2023-08-08T17:27:15;100567.59;;;22.76;54.93
35224;BME280;21367;51.930;8.112;2023-08-08T17:32:19;100568.72;;;20.74;59.64
35224;BME280;21367;51.930;8.112;2023-08-08T17:37:22;100565.28;;;20.53;59.36
35224;BME280;21367;51.930;8.112;2023-08-08T17:42:28;100560.00;;;19.81;62.23
35224;BME280;21367;51.930;8.112;2023-08-08T17:47:35;100566.88;;;19.56;61.12
35224;BME280;21367;51.930;8.112;2023-08-08T17:52:39;100568.69;;;19.70;63.31
35224;BME280;21367;51.930;8.112;2023-08-08T17:57:45;100565.06;;;19.34;63.62
35224;BME280;21367;51.930;8.112;2023-08-08T18:02:49;100566.81;;;19.38;63.73
35224;BME280;21367;51.930;8.112;2023-08-08T18:07:52;100571.31;;;19.71;64.93
35224;BME280;21367;51.930;8.112;2023-08-08T18:12:59;100572.88;;;19.31;65.10
35224;BME280;21367;51.930;8.112;2023-08-08T18:18:03;100564.13;;;19.19;64.05
35224;BME280;21367;51.930;8.112;2023-08-08T18:23:07;100572.00;;;19.36;64.90
35224;BME280;21367;51.930;8.112;2023-08-08T18:28:14;100568.56;;;19.40;65.42
35224;BME280;21367;51.930;8.112;2023-08-08T18:33:18;100563.97;;;18.92;66.67
35224;BME280;21367;51.930;8.112;2023-08-08T18:38:22;100567.50;;;19.02;65.78
35224;BME280;21367;51.930;8.112;2023-08-08T18:43:29;100576.69;;;18.50;66.36
35224;BME280;21367;51.930;8.112;2023-08-08T18:48:32;100579.22;;;18.41;66.98
35224;BME280;21367;51.930;8.112;2023-08-08T18:53:36;100580.00;;;18.30;67.79
35224;BME280;21367;51.930;8.112;2023-08-08T18:58:42;100572.00;;;18.08;68.78
35224;BME280;21367;51.930;8.112;2023-08-08T19:03:46;100571.28;;;18.23;68.76
35224;BME280;21367;51.930;8.112;2023-08-08T19:08:49;100568.28;;;17.80;68.04
35224;BME280;21367;51.930;8.112;2023-08-08T19:13:55;100568.13;;;17.69;69.54
35224;BME280;21367;51.930;8.112;2023-08-08T19:18:59;100579.28;;;17.61;68.04
35224;BME280;21367;51.930;8.112;2023-08-08T19:24:03;100565.25;;;17.45;69.35
35224;BME280;21367;51.930;8.112;2023-08-08T19:29:10;100574.84;;;16.85;71.67
35224;BME280;21367;51.930;8.112;2023-08-08T19:34:13;100580.00;;;17.46;69.97
35224;BME280;21367;51.930;8.112;2023-08-08T19:39:17;100565.25;;;17.43;69.95
35224;BME280;21367;51.930;8.112;2023-08-08T19:44:23;100568.56;;;17.31;70.84
35224;BME280;21367;51.930;8.112;2023-08-08T19:49:27;100572.13;;;17.41;70.94
35224;BME280;21367;51.930;8.112;2023-08-08T19:54:32;100578.81;;;17.21;71.48
35224;BME280;21367;51.930;8.112;2023-08-08T19:59:39;100571.66;;;17.04;71.95
35224;BME280;21367;51.930;8.112;2023-08-08T20:04:42;100580.34;;;17.05;72.80
35224;BME280;21367;51.930;8.112;2023-08-08T20:09:46;100570.06;;;17.13;73.37
35224;BME280;21367;51.930;8.112;2023-08-08T20:14:53;100566.75;;;17.26;74.01
35224;BME280;21367;51.930;8.112;2023-08-08T20:19:56;100569.53;;;17.40;74.71
35224;BME280;21367;51.930;8.112;2023-08-08T20:25:00;100557.06;;;17.14;74.45
35224;BME280;21367;51.930;8.112;2023-08-08T20:30:08;100561.88;;;16.85;76.33
35224;BME280;21367;51.930;8.112;2023-08-08T20:35:12;100571.34;;;16.81;78.43
35224;BME280;21367;51.930;8.112;2023-08-08T20:40:16;100576.63;;;16.89;77.95
35224;BME280;21367;51.930;8.112;2023-08-08T20:45:22;100581.50;;;16.68;78.49
35224;BME280;21367;51.930;8.112;2023-08-08T20:50:26;100577.06;;;16.60;78.60
35224;BME280;21367;51.930;8.112;2023-08-08T20:55:29;100579.50;;;16.50;79.62
35224;BME280;21367;51.930;8.112;2023-08-08T21:00:36;100588.91;;;16.43;81.16
35224;BME280;21367;51.930;8.112;2023-08-08T21:05:39;100588.59;;;16.26;82.39
35224;BME280;21367;51.930;8.112;2023-08-08T21:10:43;100588.31;;;16.09;82.30
35224;BME280;21367;51.930;8.112;2023-08-08T21:15:49;100588.97;;;15.96;85.78
35224;BME280;21367;51.930;8.112;2023-08-08T21:20:53;100587.63;;;15.71;89.14
35224;BME280;21367;51.930;8.112;2023-08-08T21:25:57;100601.53;;;15.76;91.22
35224;BME280;21367;51.930;8.112;2023-08-08T21:31:03;100599.97;;;15.42;91.12
35224;BME280;21367;51.930;8.112;2023-08-08T21:36:07;100605.50;;;15.60;89.33
35224;BME280;21367;51.930;8.112;2023-08-08T21:41:11;100619.38;;;15.61;92.33
35224;BME280;21367;51.930;8.112;2023-08-08T21:46:18;100629.72;;;15.61;93.82
35224;BME280;21367;51.930;8.112;2023-08-08T21:51:21;100628.00;;;15.61;97.60
35224;BME280;21367;51.930;8.112;2023-08-08T21:56:25;100644.19;;;15.51;100.00
35224;BME280;21367;51.930;8.112;2023-08-08T22:01:31;100630.88;;;15.73;100.00
35224;BME280;21367;51.930;8.112;2023-08-08T22:06:35;100603.69;;;15.55;100.00
35224;BME280;21367;51.930;8.112;2023-08-08T22:11:41;100578.28;;;15.37;100.00
35224;BME280;21367;51.930;8.112;2023-08-08T22:16:47;100590.50;;;15.44;100.00
35224;BME280;21367;51.930;8.112;2023-08-08T22:21:51;100597.34;;;15.40;100.00
35224;BME280;21367;51.930;8.112;2023-08-08T22:26:54;100581.75;;;15.37;100.00
35224;BME280;21367;51.930;8.112;2023-08-08T22:32:01;100591.50;;;15.08;100.00
35224;BME280;21367;51.930;8.112;2023-08-08T22:37:04;100611.72;;;14.87;100.00
35224;BME280;21367;51.930;8.112;2023-08-08T22:42:08;100610.94;;;14.91;100.00
35224;BME280;21367;51.930;8.112;2023-08-08T22:47:14;100598.19;;;15.00;100.00
35224;BME280;21367;51.930;8.112;2023-08-08T22:52:18;100579.50;;;15.13;100.00
35224;BME280;21367;51.930;8.112;2023-08-08T22:57:22;100577.63;;;15.06;100.00
35224;BME280;21367;51.930;8.112;2023-08-08T23:02:28;100566.56;;;15.13;100.00
35224;BME280;21367;51.930;8.112;2023-08-08T23:07:32;100578.63;;;15.11;100.00
35224;BME280;21367;51.930;8.112;2023-08-08T23:12:36;100566.28;;;15.01;100.00
35224;BME280;21367;51.930;8.112;2023-08-08T23:17:42;100563.56;;;14.93;100.00
35224;BME280;21367;51.930;8.112;2023-08-08T23:22:46;100571.19;;;14.87;100.00
35224;BME280;21367;51.930;8.112;2023-08-08T23:27:49;100576.72;;;15.04;100.00
35224;BME280;21367;51.930;8.112;2023-08-08T23:32:56;100568.72;;;14.93;100.00
35224;BME280;21367;51.930;8.112;2023-08-08T23:37:59;100561.97;;;14.61;100.00
35224;BME280;21367;51.930;8.112;2023-08-08T23:43:03;100579.09;;;14.57;100.00
35224;BME280;21367;51.930;8.112;2023-08-08T23:48:09;100573.69;;;14.84;100.00
35224;BME280;21367;51.930;8.112;2023-08-08T23:53:12;100565.78;;;14.76;100.00
35224;BME280;21367;51.930;8.112;2023-08-08T23:58:16;100562.75;;;14.58;100.00
